www.winti-wetter.ch
Wetterdaten: aktuell Sonntag, 18.08.2019 01:20
Datum Zeit Temp. A. Feuchte A. Luftdruck Regen Wind Richtung Richtung Sonnenschein T Zeit Regen Solar Windben
18.08.2019 01:20 17.2 C 95 % 1012.0 hPa 0.0 l/m 0.0 km/h SW 232 0 min 0 min 0 W/m 0.0 km/h
18.08.2019 01:15 17.3 C 95 % 1012.1 hPa 0.0 l/m 0.0 km/h SW 232 0 min 0 min 0 W/m 0.0 km/h
18.08.2019 01:10 17.3 C 95 % 1012.0 hPa 0.0 l/m 0.4 km/h SW 232 0 min 0 min 0 W/m 3.2 km/h
18.08.2019 01:05 17.3 C 94 % 1012.0 hPa 0.0 l/m 0.1 km/h SW 232 0 min 0 min 0 W/m 1.6 km/h
18.08.2019 01:00 17.3 C 94 % 1012.0 hPa 0.0 l/m 0.0 km/h SW 232 0 min 0 min 0 W/m 0.0 km/h
18.08.2019 00:55 17.4 C 94 % 1012.1 hPa 0.0 l/m 0.2 km/h SW 232 0 min 0 min 0 W/m 1.6 km/h
18.08.2019 00:50 17.3 C 94 % 1012.1 hPa 0.0 l/m 1.1 km/h SW 232 0 min 0 min 0 W/m 3.2 km/h
18.08.2019 00:45 17.3 C 94 % 1012.1 hPa 0.0 l/m 0.0 km/h SW 232 0 min 0 min 0 W/m 0.0 km/h
18.08.2019 00:40 17.5 C 93 % 1012.1 hPa 0.0 l/m 0.0 km/h SW 232 0 min 0 min 0 W/m 0.0 km/h
18.08.2019 00:35 17.6 C 92 % 1012.1 hPa 0.0 l/m 0.0 km/h SW 232 0 min 0 min 0 W/m 0.0 km/h
18.08.2019 00:30 17.9 C 92 % 1012.1 hPa 0.0 l/m 0.0 km/h SW 232 0 min 0 min 0 W/m 0.0 km/h
18.08.2019 00:25 18.1 C 91 % 1012.0 hPa 0.0 l/m 0.0 km/h SW 233 0 min 0 min 0 W/m 0.0 km/h
18.08.2019 00:21 18.2 C 91 % 1012.0 hPa 0.0 l/m 0.3 km/h SW 232 0 min 0 min 0 W/m 1.6 km/h
18.08.2019 00:15 18.3 C 91 % 1012.0 hPa 0.0 l/m 1.6 km/h SW 232 0 min 0 min 0 W/m 3.2 km/h
18.08.2019 00:10 18.4 C 91 % 1012.0 hPa 0.0 l/m 2.4 km/h SW 232 0 min 0 min 0 W/m 4.8 km/h
18.08.2019 00:05 18.4 C 91 % 1012.1 hPa 0.0 l/m 2.3 km/h SW 232 0 min 0 min 0 W/m 4.8 km/h
18.08.2019 00:00 18.5 C 91 % 1012.1 hPa 0.0 l/m 0.1 km/h SW 232 0 min 0 min 0 W/m 1.6 km/h
17.08.2019 23:55 18.5 C 90 % 1012.0 hPa 0.0 l/m 1.7 km/h SW 232 0 min 0 min 0 W/m 3.2 km/h
17.08.2019 23:50 18.6 C 90 % 1012.1 hPa 0.0 l/m 1.6 km/h SW 232 0 min 0 min 0 W/m 3.2 km/h
17.08.2019 23:45 18.7 C 89 % 1012.1 hPa 0.0 l/m 1.7 km/h SW 232 0 min 0 min 0 W/m 3.2 km/h
17.08.2019 23:40 18.8 C 89 % 1012.2 hPa 0.0 l/m 0.0 km/h SW 232 0 min 0 min 0 W/m 0.0 km/h
17.08.2019 23:35 18.8 C 89 % 1012.2 hPa 0.0 l/m 0.3 km/h SW 232 0 min 0 min 0 W/m 3.2 km/h
17.08.2019 23:30 18.8 C 89 % 1012.2 hPa 0.0 l/m 2.9 km/h SW 232 0 min 0 min 0 W/m 6.4 km/h
17.08.2019 23:25 18.8 C 88 % 1012.3 hPa 0.0 l/m 3.3 km/h SW 232 0 min 0 min 0 W/m 4.8 km/h
17.08.2019 23:20 18.9 C 88 % 1012.2 hPa 0.0 l/m 2.4 km/h SW 232 0 min 0 min 0 W/m 3.2 km/h
17.08.2019 23:15 19.0 C 88 % 1012.1 hPa 0.0 l/m 0.0 km/h SW 232 0 min 0 min 0 W/m 1.6 km/h
17.08.2019 23:10 19.1 C 87 % 1012.2 hPa 0.0 l/m 0.0 km/h SW 232 0 min 0 min 0 W/m 0.0 km/h
17.08.2019 23:05 19.1 C 87 % 1012.2 hPa 0.0 l/m 0.5 km/h SW 232 0 min 0 min 0 W/m 3.2 km/h
17.08.2019 23:00 19.0 C 88 % 1012.3 hPa 0.0 l/m 3.1 km/h SW 232 0 min 0 min 0 W/m 4.8 km/h
17.08.2019 22:55 18.9 C 88 % 1012.2 hPa 0.0 l/m 1.8 km/h SW 232 0 min 0 min 0 W/m 4.8 km/h
17.08.2019 22:50 18.9 C 88 % 1012.1 hPa 0.0 l/m 0.0 km/h SW 232 0 min 0 min 0 W/m 0.0 km/h
17.08.2019 22:45 18.9 C 89 % 1012.2 hPa 0.0 l/m 0.4 km/h SW 232 0 min 0 min 0 W/m 3.2 km/h
17.08.2019 22:40 18.9 C 89 % 1012.2 hPa 0.0 l/m 2.5 km/h SW 232 0 min 0 min 0 W/m 4.8 km/h
17.08.2019 22:35 19.0 C 89 % 1012.4 hPa 0.0 l/m 1.6 km/h SW 232 0 min 0 min 0 W/m 4.8 km/h
17.08.2019 22:30 19.1 C 89 % 1012.5 hPa 0.0 l/m 1.1 km/h SW 232 0 min 0 min 0 W/m 4.8 km/h
17.08.2019 22:25 19.2 C 89 % 1012.6 hPa 0.0 l/m 1.5 km/h SW 232 0 min 0 min 0 W/m 3.2 km/h
17.08.2019 22:20 19.2 C 89 % 1012.7 hPa 0.0 l/m 2.2 km/h SW 233 0 min 0 min 0 W/m 4.8 km/h
17.08.2019 22:15 19.3 C 89 % 1012.9 hPa 0.0 l/m 1.7 km/h SW 232 0 min 0 min 0 W/m 4.8 km/h
17.08.2019 22:10 19.4 C 88 % 1012.8 hPa 0.0 l/m 3.8 km/h SW 232 0 min 0 min 0 W/m 6.4 km/h
17.08.2019 22:05 19.4 C 89 % 1013.1 hPa 0.0 l/m 4.5 km/h SW 232 0 min 0 min 0 W/m 8.0 km/h
17.08.2019 22:00 19.5 C 89 % 1013.2 hPa 0.0 l/m 3.6 km/h SW 232 0 min 0 min 0 W/m 6.4 km/h
17.08.2019 21:55 19.4 C 89 % 1013.2 hPa 0.0 l/m 1.9 km/h SW 232 0 min 0 min 0 W/m 4.8 km/h
17.08.2019 21:50 19.4 C 90 % 1013.3 hPa 0.0 l/m 0.4 km/h SW 232 0 min 0 min 0 W/m 3.2 km/h
17.08.2019 21:45 19.4 C 90 % 1013.4 hPa 0.0 l/m 1.0 km/h SW 232 0 min 0 min 0 W/m 4.8 km/h
17.08.2019 21:40 19.4 C 90 % 1013.4 hPa 0.0 l/m 1.8 km/h SW 232 0 min 0 min 0 W/m 4.8 km/h
17.08.2019 21:35 19.4 C 90 % 1013.4 hPa 0.0 l/m 0.9 km/h SW 232 0 min 0 min 0 W/m 4.8 km/h
17.08.2019 21:30 19.4 C 90 % 1013.4 hPa 0.0 l/m 1.2 km/h SW 232 0 min 0 min 0 W/m 3.2 km/h
17.08.2019 21:25 19.5 C 89 % 1013.4 hPa 0.0 l/m 0.9 km/h SW 232 0 min 0 min 0 W/m 3.2 km/h
17.08.2019 21:20 19.6 C 89 % 1013.5 hPa 0.0 l/m 0.3 km/h SW 232 0 min 0 min 0 W/m 1.6 km/h
17.08.2019 21:15 19.7 C 88 % 1013.4 hPa 0.0 l/m 0.4 km/h SW 232 0 min 0 min 0 W/m 1.6 km/h
17.08.2019 21:10 19.8 C 87 % 1013.4 hPa 0.0 l/m 1.4 km/h SW 232 0 min 0 min 0 W/m 4.8 km/h
17.08.2019 21:05 19.8 C 86 % 1013.2 hPa 0.0 l/m 0.0 km/h SW 232 0 min 5 min 0 W/m 1.6 km/h
17.08.2019 21:00 19.8 C 86 % 1013.3 hPa 0.0 l/m 0.0 km/h SW 232 0 min 5 min 0 W/m 0.0 km/h
17.08.2019 20:55 19.9 C 87 % 1013.2 hPa 0.0 l/m 0.0 km/h SW 232 0 min 0 min 0 W/m 0.0 km/h
17.08.2019 20:50 20.0 C 86 % 1013.3 hPa 0.0 l/m 0.0 km/h SW 232 0 min 0 min 0 W/m 0.0 km/h
17.08.2019 20:45 20.1 C 85 % 1013.1 hPa 0.0 l/m 1.6 km/h SW 232 0 min 0 min 0 W/m 3.2 km/h
17.08.2019 20:40 20.2 C 84 % 1013.1 hPa 0.0 l/m 2.1 km/h SW 232 0 min 0 min 0 W/m 4.8 km/h
17.08.2019 20:35 20.3 C 84 % 1013.0 hPa 0.0 l/m 2.4 km/h SW 232 0 min 0 min 2 W/m 4.8 km/h
17.08.2019 20:30 20.3 C 83 % 1013.0 hPa 0.0 l/m 2.2 km/h SW 232 0 min 0 min 5 W/m 4.8 km/h
17.08.2019 20:25 20.3 C 82 % 1013.1 hPa 0.0 l/m 0.4 km/h SW 232 0 min 0 min 7 W/m 1.6 km/h
17.08.2019 20:20 20.5 C 81 % 1013.1 hPa 0.0 l/m 1.3 km/h SW 232 0 min 0 min 10 W/m 3.2 km/h
17.08.2019 20:15 20.6 C 80 % 1013.2 hPa 0.0 l/m 0.0 km/h SW 232 0 min 0 min 12 W/m 1.6 km/h
17.08.2019 20:10 20.7 C 78 % 1013.1 hPa 0.0 l/m 0.7 km/h SW 232 0 min 0 min 16 W/m 3.2 km/h
17.08.2019 20:05 20.8 C 79 % 1013.0 hPa 0.0 l/m 0.5 km/h SW 232 0 min 0 min 19 W/m 3.2 km/h
17.08.2019 20:00 20.8 C 78 % 1013.1 hPa 0.0 l/m 0.0 km/h SW 232 0 min 0 min 22 W/m 0.0 km/h
17.08.2019 19:55 20.8 C 78 % 1013.1 hPa 0.0 l/m 0.0 km/h SW 232 0 min 0 min 25 W/m 0.0 km/h
17.08.2019 19:50 20.8 C 76 % 1013.3 hPa 0.0 l/m 0.1 km/h SW 232 0 min 0 min 25 W/m 1.6 km/h
17.08.2019 19:45 20.9 C 75 % 1013.2 hPa 0.0 l/m 1.2 km/h SW 232 0 min 0 min 22 W/m 3.2 km/h
17.08.2019 19:40 21.1 C 75 % 1013.2 hPa 0.0 l/m 0.4 km/h SW 232 0 min 0 min 24 W/m 1.6 km/h
17.08.2019 19:35 21.2 C 74 % 1013.2 hPa 0.0 l/m 0.7 km/h SW 232 0 min 0 min 31 W/m 3.2 km/h
17.08.2019 19:30 21.3 C 75 % 1013.2 hPa 0.0 l/m 1.9 km/h SW 232 0 min 0 min 43 W/m 4.8 km/h
17.08.2019 19:25 21.4 C 75 % 1013.2 hPa 0.0 l/m 1.7 km/h SW 232 0 min 0 min 54 W/m 3.2 km/h
17.08.2019 19:20 21.6 C 74 % 1013.1 hPa 0.0 l/m 1.1 km/h SW 232 0 min 0 min 57 W/m 3.2 km/h
17.08.2019 19:15 21.7 C 73 % 1013.2 hPa 0.0 l/m 2.1 km/h SW 232 0 min 0 min 71 W/m 3.2 km/h
17.08.2019 19:10 21.8 C 72 % 1013.2 hPa 0.0 l/m 2.9 km/h SW 232 0 min 0 min 80 W/m 4.8 km/h
17.08.2019 19:05 21.8 C 70 % 1013.2 hPa 0.0 l/m 3.0 km/h SW 232 0 min 0 min 87 W/m 4.8 km/h
17.08.2019 19:00 21.9 C 73 % 1013.0 hPa 0.0 l/m 2.3 km/h SW 232 0 min 0 min 114 W/m 4.8 km/h
17.08.2019 18:55 21.8 C 73 % 1013.0 hPa 0.0 l/m 1.5 km/h SW 232 0 min 0 min 115 W/m 3.2 km/h
17.08.2019 18:50 21.8 C 73 % 1013.0 hPa 0.0 l/m 0.7 km/h SW 232 0 min 0 min 105 W/m 3.2 km/h
17.08.2019 18:45 21.7 C 73 % 1013.0 hPa 0.0 l/m 1.8 km/h SW 232 0 min 0 min 107 W/m 3.2 km/h
17.08.2019 18:40 21.7 C 74 % 1013.0 hPa 0.0 l/m 1.4 km/h SW 232 0 min 0 min 101 W/m 3.2 km/h
17.08.2019 18:35 21.7 C 76 % 1013.1 hPa 0.0 l/m 0.8 km/h SW 232 0 min 0 min 78 W/m 3.2 km/h
17.08.2019 18:30 21.7 C 74 % 1013.1 hPa 0.0 l/m 1.3 km/h SW 232 0 min 0 min 64 W/m 4.8 km/h
17.08.2019 18:25 21.7 C 74 % 1013.1 hPa 0.0 l/m 3.2 km/h SW 232 0 min 0 min 75 W/m 6.4 km/h
17.08.2019 18:20 21.7 C 73 % 1013.2 hPa 0.0 l/m 3.9 km/h SW 232 0 min 0 min 77 W/m 6.4 km/h
17.08.2019 18:15 21.7 C 72 % 1013.1 hPa 0.0 l/m 3.7 km/h SW 232 0 min 0 min 77 W/m 6.4 km/h
17.08.2019 18:10 21.8 C 71 % 1012.9 hPa 0.0 l/m 3.0 km/h SW 232 0 min 0 min 73 W/m 4.8 km/h
17.08.2019 18:05 21.8 C 71 % 1012.9 hPa 0.0 l/m 2.9 km/h SW 232 0 min 0 min 85 W/m 6.4 km/h
17.08.2019 18:00 21.9 C 72 % 1013.0 hPa 0.0 l/m 2.3 km/h SW 232 0 min 0 min 99 W/m 4.8 km/h
17.08.2019 17:55 21.9 C 73 % 1013.0 hPa 0.0 l/m 2.9 km/h SW 232 0 min 0 min 101 W/m 4.8 km/h
17.08.2019 17:50 22.0 C 72 % 1012.9 hPa 0.0 l/m 3.4 km/h SW 232 0 min 0 min 103 W/m 6.4 km/h
17.08.2019 17:45 22.1 C 72 % 1012.9 hPa 0.0 l/m 4.0 km/h SW 232 0 min 0 min 105 W/m 8.0 km/h
17.08.2019 17:40 22.2 C 72 % 1013.1 hPa 0.0 l/m 4.4 km/h SW 232 0 min 0 min 120 W/m 8.0 km/h
17.08.2019 17:35 22.3 C 71 % 1013.1 hPa 0.0 l/m 4.6 km/h SW 232 0 min 0 min 135 W/m 9.7 km/h
17.08.2019 17:30 22.3 C 72 % 1013.0 hPa 0.0 l/m 4.2 km/h SW 232 0 min 0 min 145 W/m 6.4 km/h
17.08.2019 17:25 22.4 C 71 % 1013.0 hPa 0.0 l/m 3.2 km/h SW 232 0 min 0 min 151 W/m 6.4 km/h
17.08.2019 17:20 22.4 C 72 % 1013.1 hPa 0.0 l/m 2.8 km/h SW 232 0 min 0 min 164 W/m 6.4 km/h
17.08.2019 17:15 22.4 C 72 % 1012.9 hPa 0.0 l/m 3.1 km/h SW 232 0 min 0 min 170 W/m 6.4 km/h
17.08.2019 17:10 22.4 C 71 % 1012.9 hPa 0.0 l/m 2.6 km/h SW 232 0 min 0 min 148 W/m 4.8 km/h
17.08.2019 17:05 22.6 C 69 % 1012.9 hPa 0.0 l/m 3.7 km/h SW 232 0 min 0 min 148 W/m 6.4 km/h
17.08.2019 17:00 22.7 C 69 % 1012.8 hPa 0.0 l/m 4.1 km/h SW 232 0 min 0 min 141 W/m 6.4 km/h
17.08.2019 16:55 22.7 C 68 % 1012.9 hPa 0.0 l/m 4.0 km/h SW 232 0 min 0 min 152 W/m 6.4 km/h
17.08.2019 16:50 22.8 C 69 % 1012.9 hPa 0.0 l/m 2.6 km/h SW 232 0 min 0 min 162 W/m 4.8 km/h
17.08.2019 16:45 22.8 C 68 % 1012.8 hPa 0.0 l/m 2.8 km/h SW 232 0 min 0 min 174 W/m 4.8 km/h
17.08.2019 16:40 22.8 C 69 % 1012.8 hPa 0.0 l/m 3.8 km/h SW 232 0 min 0 min 162 W/m 6.4 km/h
17.08.2019 16:35 23.0 C 67 % 1013.0 hPa 0.0 l/m 3.4 km/h SW 232 0 min 5 min 186 W/m 6.4 km/h
17.08.2019 16:30 23.1 C 67 % 1012.9 hPa 0.0 l/m 3.3 km/h SW 232 0 min 0 min 235 W/m 4.8 km/h
17.08.2019 16:25 23.1 C 68 % 1013.0 hPa 0.0 l/m 3.5 km/h SW 232 0 min 0 min 197 W/m 6.4 km/h
17.08.2019 16:20 23.2 C 65 % 1013.0 hPa 0.0 l/m 3.8 km/h SW 232 0 min 0 min 204 W/m 6.4 km/h
17.08.2019 16:15 23.3 C 65 % 1012.9 hPa 0.0 l/m 3.0 km/h SW 232 0 min 0 min 257 W/m 6.4 km/h
17.08.2019 16:10 23.3 C 65 % 1013.0 hPa 0.0 l/m 3.6 km/h SW 232 0 min 0 min 259 W/m 6.4 km/h
17.08.2019 16:05 23.2 C 65 % 1013.0 hPa 0.0 l/m 3.1 km/h SW 232 0 min 0 min 249 W/m 6.4 km/h
17.08.2019 16:00 23.2 C 65 % 1013.1 hPa 0.0 l/m 3.8 km/h SW 232 0 min 0 min 233 W/m 6.4 km/h
17.08.2019 15:55 23.3 C 65 % 1013.1 hPa 0.0 l/m 3.3 km/h SW 232 0 min 0 min 306 W/m 6.4 km/h
17.08.2019 15:50 23.2 C 64 % 1013.2 hPa 0.0 l/m 2.6 km/h SW 232 0 min 0 min 344 W/m 4.8 km/h
17.08.2019 15:45 23.1 C 64 % 1013.1 hPa 0.0 l/m 3.6 km/h SW 232 0 min 0 min 312 W/m 6.4 km/h
17.08.2019 15:40 23.0 C 63 % 1013.2 hPa 0.0 l/m 2.8 km/h SW 232 0 min 0 min 262 W/m 4.8 km/h
17.08.2019 15:35 23.3 C 66 % 1013.3 hPa 0.0 l/m 2.5 km/h SW 232 0 min 0 min 233 W/m 4.8 km/h
17.08.2019 15:30 23.5 C 66 % 1013.3 hPa 0.0 l/m 3.7 km/h SW 232 0 min 0 min 345 W/m 6.4 km/h
17.08.2019 15:25 23.6 C 61 % 1013.5 hPa 0.0 l/m 2.5 km/h SW 232 5 min 0 min 431 W/m 4.8 km/h
17.08.2019 15:20 23.3 C 68 % 1013.5 hPa 0.0 l/m 1.8 km/h SW 232 0 min 0 min 395 W/m 4.8 km/h
17.08.2019 15:15 23.0 C 60 % 1013.6 hPa 0.0 l/m 2.1 km/h SW 232 0 min 0 min 327 W/m 3.2 km/h
17.08.2019 15:10 22.9 C 65 % 1013.7 hPa 0.0 l/m 2.7 km/h SW 232 0 min 0 min 304 W/m 4.8 km/h
17.08.2019 15:05 23.0 C 64 % 1013.7 hPa 0.0 l/m 2.0 km/h SW 232 0 min 0 min 299 W/m 3.2 km/h
17.08.2019 15:00 22.8 C 65 % 1013.8 hPa 0.0 l/m 0.0 km/h SW 232 0 min 0 min 291 W/m 0.0 km/h
17.08.2019 14:55 22.7 C 63 % 1013.8 hPa 0.0 l/m 1.4 km/h SW 232 0 min 0 min 270 W/m 3.2 km/h
17.08.2019 14:50 22.6 C 66 % 1013.8 hPa 0.0 l/m 2.8 km/h SW 232 0 min 0 min 234 W/m 4.8 km/h
17.08.2019 14:45 22.6 C 63 % 1013.9 hPa 0.0 l/m 3.0 km/h SW 232 0 min 0 min 232 W/m 6.4 km/h
17.08.2019 14:40 22.7 C 68 % 1013.9 hPa 0.0 l/m 2.9 km/h SW 232 0 min 0 min 248 W/m 6.4 km/h
17.08.2019 14:35 22.6 C 66 % 1014.1 hPa 0.0 l/m 4.1 km/h SW 232 0 min 0 min 269 W/m 6.4 km/h
17.08.2019 14:30 22.5 C 65 % 1014.2 hPa 0.0 l/m 3.1 km/h SW 232 0 min 0 min 254 W/m 4.8 km/h
17.08.2019 14:25 22.4 C 63 % 1014.2 hPa 0.0 l/m 4.2 km/h SW 232 0 min 0 min 193 W/m 6.4 km/h
17.08.2019 14:20 22.6 C 65 % 1014.2 hPa 0.0 l/m 2.7 km/h SW 233 0 min 0 min 202 W/m 6.4 km/h
17.08.2019 14:15 22.8 C 60 % 1014.1 hPa 0.0 l/m 3.8 km/h SW 232 0 min 0 min 297 W/m 6.4 km/h
17.08.2019 14:10 23.1 C 61 % 1014.1 hPa 0.0 l/m 3.9 km/h SW 232 0 min 0 min 349 W/m 6.4 km/h
17.08.2019 14:05 23.0 C 65 % 1014.2 hPa 0.0 l/m 2.6 km/h SW 232 0 min 0 min 354 W/m 6.4 km/h
17.08.2019 14:00 22.8 C 66 % 1014.3 hPa 0.0 l/m 1.3 km/h SW 232 0 min 0 min 330 W/m 4.8 km/h
17.08.2019 13:55 22.7 C 63 % 1014.3 hPa 0.0 l/m 2.5 km/h SW 232 0 min 0 min 310 W/m 8.0 km/h
17.08.2019 13:50 22.8 C 62 % 1014.3 hPa 0.0 l/m 3.0 km/h SW 232 0 min 0 min 319 W/m 6.4 km/h
17.08.2019 13:45 22.7 C 60 % 1014.4 hPa 0.0 l/m 3.3 km/h SW 232 0 min 0 min 390 W/m 8.0 km/h
17.08.2019 13:40 22.4 C 64 % 1014.6 hPa 0.0 l/m 5.0 km/h SW 232 0 min 0 min 318 W/m 8.0 km/h
17.08.2019 13:35 22.3 C 62 % 1014.6 hPa 0.0 l/m 4.5 km/h SW 232 0 min 0 min 277 W/m 8.0 km/h
17.08.2019 13:30 22.3 C 63 % 1014.6 hPa 0.0 l/m 6.0 km/h SW 232 0 min 0 min 250 W/m 11.3 km/h
17.08.2019 13:25 22.3 C 63 % 1014.7 hPa 0.0 l/m 5.9 km/h SW 222 0 min 0 min 235 W/m 9.7 km/h
17.08.2019 13:20 22.2 C 63 % 1014.7 hPa 0.0 l/m 5.4 km/h SW 215 0 min 0 min 201 W/m 11.3 km/h
17.08.2019 13:15 22.2 C 63 % 1014.7 hPa 0.0 l/m 5.2 km/h SW 215 0 min 0 min 137 W/m 9.7 km/h
17.08.2019 13:10 22.4 C 62 % 1014.8 hPa 0.0 l/m 5.5 km/h SW 215 0 min 0 min 142 W/m 9.7 km/h
17.08.2019 13:05 22.6 C 61 % 1014.8 hPa 0.0 l/m 4.6 km/h S-SW 213 0 min 0 min 170 W/m 9.7 km/h
17.08.2019 13:00 22.7 C 63 % 1014.9 hPa 0.0 l/m 5.1 km/h S-SW 211 0 min 0 min 224 W/m 11.3 km/h
17.08.2019 12:55 22.9 C 59 % 1014.8 hPa 0.0 l/m 5.4 km/h S-SW 198 0 min 0 min 267 W/m 11.3 km/h
17.08.2019 12:50 22.9 C 61 % 1014.9 hPa 0.0 l/m 7.1 km/h SW 222 0 min 0 min 352 W/m 11.3 km/h
17.08.2019 12:45 22.8 C 61 % 1014.9 hPa 0.0 l/m 6.8 km/h SW 232 0 min 0 min 336 W/m 12.9 km/h
17.08.2019 12:40 22.9 C 59 % 1014.9 hPa 0.0 l/m 8.0 km/h W-SW 239 0 min 0 min 344 W/m 16.1 km/h
17.08.2019 12:35 23.2 C 60 % 1015.0 hPa 0.0 l/m 9.5 km/h W-SW 237 0 min 0 min 371 W/m 22.5 km/h
17.08.2019 12:30 23.4 C 60 % 1015.0 hPa 0.0 l/m 5.5 km/h W-SW 238 5 min 0 min 484 W/m 16.1 km/h
17.08.2019 12:25 23.7 C 59 % 1015.0 hPa 0.0 l/m 7.7 km/h SW 219 5 min 0 min 676 W/m 12.9 km/h
17.08.2019 12:20 23.9 C 59 % 1015.0 hPa 0.0 l/m 7.4 km/h S-SW 209 5 min 0 min 811 W/m 12.9 km/h
17.08.2019 12:15 23.6 C 63 % 1015.1 hPa 0.0 l/m 5.0 km/h S-SW 206 5 min 0 min 747 W/m 9.7 km/h
17.08.2019 12:10 22.9 C 64 % 1015.1 hPa 0.0 l/m 5.7 km/h S-SW 209 5 min 0 min 541 W/m 12.9 km/h
17.08.2019 12:05 22.6 C 65 % 1015.1 hPa 0.0 l/m 4.6 km/h S-SW 207 0 min 0 min 383 W/m 9.7 km/h
17.08.2019 12:00 22.7 C 61 % 1015.1 hPa 0.0 l/m 6.3 km/h S-SW 207 0 min 0 min 422 W/m 11.3 km/h
17.08.2019 11:55 22.8 C 62 % 1015.2 hPa 0.0 l/m 6.2 km/h S-SW 210 5 min 0 min 484 W/m 14.5 km/h
17.08.2019 11:50 22.4 C 63 % 1015.2 hPa 0.0 l/m 4.5 km/h S-SW 210 5 min 0 min 482 W/m 8.0 km/h
17.08.2019 11:45 21.9 C 66 % 1015.2 hPa 0.0 l/m 5.0 km/h S-SW 210 5 min 0 min 444 W/m 9.7 km/h
17.08.2019 11:40 21.4 C 69 % 1015.2 hPa 0.0 l/m 5.4 km/h S-SW 210 0 min 0 min 296 W/m 8.0 km/h
17.08.2019 11:35 21.3 C 68 % 1015.2 hPa 0.0 l/m 6.6 km/h S-SW 209 0 min 0 min 245 W/m 12.9 km/h
17.08.2019 11:30 21.3 C 71 % 1015.3 hPa 0.0 l/m 3.7 km/h SW 229 0 min 0 min 226 W/m 6.4 km/h
17.08.2019 11:25 21.2 C 68 % 1015.3 hPa 0.0 l/m 6.2 km/h SW 229 0 min 0 min 218 W/m 11.3 km/h
17.08.2019 11:20 21.2 C 69 % 1015.2 hPa 0.0 l/m 5.8 km/h SW 228 0 min 0 min 223 W/m 14.5 km/h
17.08.2019 11:15 21.2 C 68 % 1015.2 hPa 0.0 l/m 5.2 km/h SW 217 0 min 0 min 232 W/m 11.3 km/h
17.08.2019 11:10 21.2 C 69 % 1015.2 hPa 0.0 l/m 6.2 km/h SW 217 0 min 0 min 240 W/m 12.9 km/h
17.08.2019 11:05 21.1 C 69 % 1015.1 hPa 0.0 l/m 5.4 km/h SW 228 0 min 0 min 255 W/m 9.7 km/h
17.08.2019 11:00 21.1 C 69 % 1015.2 hPa 0.0 l/m 4.5 km/h SW 228 0 min 0 min 266 W/m 8.0 km/h
17.08.2019 10:55 20.9 C 68 % 1015.2 hPa 0.0 l/m 6.9 km/h SW 228 0 min 0 min 248 W/m 12.9 km/h
17.08.2019 10:50 20.8 C 69 % 1015.2 hPa 0.0 l/m 4.9 km/h S-SW 194 0 min 0 min 190 W/m 11.3 km/h
17.08.2019 10:45 20.8 C 68 % 1015.0 hPa 0.0 l/m 4.0 km/h S-SW 194 0 min 0 min 214 W/m 8.0 km/h
17.08.2019 10:40 20.8 C 70 % 1015.1 hPa 0.0 l/m 6.5 km/h S-SW 194 0 min 0 min 219 W/m 11.3 km/h
17.08.2019 10:35 20.8 C 69 % 1015.1 hPa 0.0 l/m 4.9 km/h S 187 0 min 0 min 215 W/m 9.7 km/h
17.08.2019 10:30 20.9 C 68 % 1015.1 hPa 0.0 l/m 5.1 km/h S 186 0 min 0 min 220 W/m 9.7 km/h
17.08.2019 10:25 20.9 C 70 % 1015.0 hPa 0.0 l/m 6.0 km/h S 186 0 min 0 min 272 W/m 9.7 km/h
17.08.2019 10:20 20.8 C 71 % 1014.9 hPa 0.0 l/m 5.2 km/h S 171 5 min 0 min 367 W/m 12.9 km/h
17.08.2019 10:15 20.5 C 75 % 1014.9 hPa 0.0 l/m 2.1 km/h S-SO 167 5 min 0 min 359 W/m 4.8 km/h
17.08.2019 10:10 20.2 C 81 % 1014.8 hPa 0.0 l/m 0.6 km/h S-SO 167 0 min 0 min 304 W/m 1.6 km/h
17.08.2019 10:05 19.6 C 85 % 1014.9 hPa 0.0 l/m 0.2 km/h S-SO 167 0 min 0 min 315 W/m 1.6 km/h
17.08.2019 10:00 19.1 C 82 % 1014.9 hPa 0.0 l/m 0.3 km/h S-SO 167 0 min 0 min 280 W/m 1.6 km/h
17.08.2019 09:55 18.9 C 83 % 1014.9 hPa 0.0 l/m 1.7 km/h S-SO 167 0 min 0 min 304 W/m 4.8 km/h
17.08.2019 09:50 18.7 C 84 % 1014.9 hPa 0.0 l/m 4.0 km/h S-SO 167 0 min 0 min 245 W/m 8.0 km/h
17.08.2019 09:45 18.8 C 84 % 1015.0 hPa 0.0 l/m 2.7 km/h S-SO 167 0 min 0 min 256 W/m 8.0 km/h
17.08.2019 09:40 18.7 C 84 % 1015.0 hPa 0.0 l/m 5.0 km/h S-SO 167 5 min 0 min 298 W/m 8.0 km/h
17.08.2019 09:35 18.8 C 83 % 1015.0 hPa 0.0 l/m 4.7 km/h S-SO 167 5 min 0 min 357 W/m 9.7 km/h
17.08.2019 09:30 18.6 C 86 % 1015.1 hPa 0.0 l/m 2.7 km/h S-SO 167 5 min 0 min 305 W/m 8.0 km/h
17.08.2019 09:25 18.2 C 86 % 1015.1 hPa 0.0 l/m 6.7 km/h S-SO 167 0 min 0 min 228 W/m 9.7 km/h
17.08.2019 09:20 18.2 C 85 % 1015.1 hPa 0.0 l/m 5.1 km/h S 170 0 min 0 min 207 W/m 9.7 km/h
17.08.2019 09:15 18.2 C 86 % 1015.1 hPa 0.0 l/m 3.8 km/h S 182 0 min 0 min 204 W/m 6.4 km/h
17.08.2019 09:10 18.6 C 84 % 1015.1 hPa 0.0 l/m 4.2 km/h S 182 0 min 0 min 211 W/m 8.0 km/h
17.08.2019 09:05 19.1 C 83 % 1015.1 hPa 0.0 l/m 2.4 km/h S 182 5 min 0 min 268 W/m 6.4 km/h
17.08.2019 09:00 18.8 C 84 % 1015.1 hPa 0.0 l/m 1.5 km/h S 182 5 min 0 min 498 W/m 4.8 km/h
17.08.2019 08:55 17.9 C 89 % 1015.0 hPa 0.0 l/m 1.2 km/h S 182 5 min 0 min 331 W/m 3.2 km/h
17.08.2019 08:50 17.1 C 88 % 1014.9 hPa 0.0 l/m 1.6 km/h S 182 0 min 0 min 157 W/m 3.2 km/h
17.08.2019 08:45 17.1 C 87 % 1014.9 hPa 0.0 l/m 1.6 km/h S 182 0 min 0 min 159 W/m 3.2 km/h
17.08.2019 08:40 16.8 C 87 % 1014.9 hPa 0.0 l/m 1.2 km/h S 182 0 min 0 min 160 W/m 3.2 km/h
17.08.2019 08:35 16.7 C 88 % 1014.9 hPa 0.0 l/m 0.0 km/h S 182 0 min 0 min 147 W/m 0.0 km/h
17.08.2019 08:30 16.5 C 89 % 1014.8 hPa 0.0 l/m 1.0 km/h S 182 0 min 0 min 134 W/m 3.2 km/h
17.08.2019 08:25 16.4 C 89 % 1014.7 hPa 0.0 l/m 0.7 km/h S 182 0 min 0 min 107 W/m 3.2 km/h
17.08.2019 08:20 16.3 C 90 % 1014.7 hPa 0.0 l/m 1.0 km/h S 182 0 min 0 min 121 W/m 3.2 km/h
17.08.2019 08:15 16.2 C 90 % 1014.7 hPa 0.0 l/m 1.1 km/h S 182 0 min 0 min 113 W/m 3.2 km/h
17.08.2019 08:10 16.2 C 90 % 1014.7 hPa 0.0 l/m 1.2 km/h S 182 0 min 0 min 117 W/m 3.2 km/h
17.08.2019 08:05 15.9 C 91 % 1014.7 hPa 0.0 l/m 1.4 km/h S 182 0 min 0 min 113 W/m 3.2 km/h
17.08.2019 08:00 15.8 C 91 % 1014.7 hPa 0.0 l/m 2.1 km/h S 182 0 min 0 min 123 W/m 4.8 km/h
17.08.2019 07:55 15.6 C 92 % 1014.6 hPa 0.0 l/m 1.7 km/h S 182 5 min 0 min 134 W/m 3.2 km/h
17.08.2019 07:50 15.3 C 93 % 1014.6 hPa 0.0 l/m 0.4 km/h S 182 0 min 0 min 121 W/m 3.2 km/h
17.08.2019 07:45 15.1 C 93 % 1014.7 hPa 0.0 l/m 0.0 km/h S 182 0 min 0 min 94 W/m 0.0 km/h
17.08.2019 07:40 15.0 C 94 % 1014.6 hPa 0.0 l/m 0.0 km/h S 182 0 min 0 min 72 W/m 0.0 km/h
17.08.2019 07:35 14.9 C 94 % 1014.5 hPa 0.0 l/m 1.3 km/h S 182 0 min 0 min 66 W/m 3.2 km/h
17.08.2019 07:30 14.7 C 94 % 1014.5 hPa 0.0 l/m 0.0 km/h S 182 0 min 0 min 61 W/m 0.0 km/h
17.08.2019 07:25 14.6 C 95 % 1014.6 hPa 0.0 l/m 0.0 km/h S 182 0 min 0 min 51 W/m 0.0 km/h
17.08.2019 07:20 14.5 C 95 % 1014.6 hPa 0.0 l/m 0.0 km/h S 182 0 min 0 min 43 W/m 0.0 km/h
17.08.2019 07:15 14.4 C 95 % 1014.6 hPa 0.0 l/m 0.0 km/h S 182 0 min 0 min 33 W/m 0.0 km/h
17.08.2019 07:10 14.4 C 95 % 1014.5 hPa 0.0 l/m 0.0 km/h S 182 0 min 0 min 28 W/m 0.0 km/h
17.08.2019 07:05 14.3 C 95 % 1014.6 hPa 0.0 l/m 0.0 km/h S 182 0 min 0 min 24 W/m 0.0 km/h
17.08.2019 07:00 14.2 C 95 % 1014.5 hPa 0.0 l/m 0.0 km/h S 182 0 min 0 min 25 W/m 0.0 km/h
17.08.2019 06:55 14.2 C 95 % 1014.6 hPa 0.0 l/m 0.0 km/h S 182 0 min 0 min 25 W/m 0.0 km/h
17.08.2019 06:50 14.2 C 95 % 1014.7 hPa 0.0 l/m 0.0 km/h S 182 0 min 0 min 20 W/m 0.0 km/h
17.08.2019 06:45 14.2 C 95 % 1014.8 hPa 0.0 l/m 0.0 km/h S 182 0 min 0 min 16 W/m 0.0 km/h
17.08.2019 06:40 14.2 C 95 % 1014.8 hPa 0.0 l/m 0.0 km/h S 182 0 min 0 min 10 W/m 0.0 km/h
17.08.2019 06:35 14.1 C 95 % 1014.8 hPa 0.0 l/m 0.2 km/h S 182 0 min 0 min 7 W/m 3.2 km/h
17.08.2019 06:30 13.9 C 96 % 1014.7 hPa 0.0 l/m 0.0 km/h S 182 0 min 0 min 5 W/m 1.6 km/h
17.08.2019 06:25 13.8 C 96 % 1014.7 hPa 0.0 l/m 0.3 km/h S 182 0 min 0 min 1 W/m 3.2 km/h
17.08.2019 06:20 13.7 C 96 % 1014.7 hPa 0.0 l/m 0.3 km/h S 182 0 min 0 min 0 W/m 3.2 km/h
17.08.2019 06:15 13.6 C 96 % 1014.6 hPa 0.0 l/m 1.6 km/h S 182 0 min 0 min 0 W/m 6.4 km/h
17.08.2019 06:10 13.4 C 96 % 1014.5 hPa 0.0 l/m 0.0 km/h S 182 0 min 0 min 0 W/m 0.0 km/h
17.08.2019 06:05 13.4 C 96 % 1014.6 hPa 0.0 l/m 0.0 km/h S 182 0 min 0 min 0 W/m 0.0 km/h
17.08.2019 06:00 13.4 C 96 % 1014.7 hPa 0.0 l/m 0.0 km/h S 182 0 min 0 min 0 W/m 0.0 km/h
17.08.2019 05:55 13.5 C 96 % 1014.7 hPa 0.0 l/m 0.0 km/h S 182 0 min 0 min 0 W/m 0.0 km/h
17.08.2019 05:50 13.6 C 96 % 1014.7 hPa 0.0 l/m 0.0 km/h S 182 0 min 0 min 0 W/m 0.0 km/h
17.08.2019 05:40 13.5 C 97 % 1014.7 hPa 0.0 l/m 0.0 km/h S 180 0 min 0 min 0 W/m 1.6 km/h
17.08.2019 05:35 13.4 C 96 % 1014.8 hPa 0.0 l/m 0.0 km/h N 0 0 min 0 min 0 W/m 0.0 km/h
17.08.2019 05:30 13.3 C 97 % 1014.8 hPa 0.0 l/m 0.0 km/h S 180 0 min 0 min 0 W/m 1.6 km/h
17.08.2019 05:25 13.3 C 97 % 1014.8 hPa 0.0 l/m 0.0 km/h S 182 0 min 0 min 0 W/m 1.6 km/h
17.08.2019 05:20 13.2 C 97 % 1014.7 hPa 0.0 l/m 0.3 km/h S 182 0 min 0 min 0 W/m 1.6 km/h
17.08.2019 05:15 13.2 C 97 % 1014.6 hPa 0.0 l/m 0.0 km/h S 182 0 min 0 min 0 W/m 0.0 km/h
17.08.2019 05:10 13.2 C 97 % 1014.6 hPa 0.0 l/m 0.0 km/h S 182 0 min 0 min 0 W/m 0.0 km/h
17.08.2019 05:05 13.1 C 96 % 1014.6 hPa 0.0 l/m 0.0 km/h S 182 0 min 0 min 0 W/m 0.0 km/h
17.08.2019 05:00 13.0 C 96 % 1014.5 hPa 0.0 l/m 0.0 km/h S 182 0 min 0 min 0 W/m 0.0 km/h
17.08.2019 04:55 12.9 C 96 % 1014.6 hPa 0.0 l/m 0.0 km/h S 182 0 min 0 min 0 W/m 0.0 km/h
17.08.2019 04:50 13.0 C 96 % 1014.5 hPa 0.0 l/m 0.0 km/h S 182 0 min 0 min 0 W/m 0.0 km/h
17.08.2019 04:45 12.9 C 96 % 1014.4 hPa 0.0 l/m 0.0 km/h S 182 0 min 0 min 0 W/m 0.0 km/h
17.08.2019 04:40 12.8 C 96 % 1014.5 hPa 0.0 l/m 0.0 km/h S 182 0 min 0 min 0 W/m 0.0 km/h
17.08.2019 04:35 12.8 C 96 % 1014.5 hPa 0.0 l/m 0.4 km/h S 182 0 min 0 min 0 W/m 3.2 km/h
17.08.2019 04:30 12.9 C 96 % 1014.5 hPa 0.0 l/m 0.6 km/h S 182 0 min 0 min 0 W/m 3.2 km/h
17.08.2019 04:25 12.9 C 96 % 1014.6 hPa 0.0 l/m 0.0 km/h S 182 0 min 0 min 0 W/m 0.0 km/h
17.08.2019 04:20 13.1 C 96 % 1014.6 hPa 0.0 l/m 0.0 km/h S 182 0 min 0 min 0 W/m 0.0 km/h
17.08.2019 04:15 13.1 C 95 % 1014.6 hPa 0.0 l/m 0.3 km/h S 182 0 min 0 min 0 W/m 1.6 km/h
17.08.2019 04:10 13.1 C 95 % 1014.7 hPa 0.0 l/m 0.0 km/h S 182 0 min 0 min 0 W/m 0.0 km/h
17.08.2019 04:05 13.1 C 95 % 1014.7 hPa 0.0 l/m 0.0 km/h S 182 0 min 0 min 0 W/m 0.0 km/h
17.08.2019 04:00 13.2 C 95 % 1014.7 hPa 0.0 l/m 0.0 km/h S 182 0 min 0 min 0 W/m 0.0 km/h
17.08.2019 03:55 13.4 C 94 % 1014.7 hPa 0.0 l/m 0.0 km/h S 182 0 min 0 min 0 W/m 0.0 km/h
17.08.2019 03:50 13.5 C 95 % 1014.8 hPa 0.0 l/m 0.0 km/h S 182 0 min 0 min 0 W/m 0.0 km/h
17.08.2019 03:45 13.5 C 95 % 1014.8 hPa 0.0 l/m 0.0 km/h S 182 0 min 0 min 0 W/m 0.0 km/h
17.08.2019 03:40 13.5 C 95 % 1014.9 hPa 0.0 l/m 0.0 km/h S 182 0 min 0 min 0 W/m 0.0 km/h
17.08.2019 03:35 13.6 C 94 % 1014.9 hPa 0.0 l/m 0.0 km/h S 182 0 min 0 min 0 W/m 0.0 km/h
17.08.2019 03:30 13.8 C 94 % 1014.9 hPa 0.0 l/m 0.0 km/h S 182 0 min 0 min 0 W/m 1.6 km/h
17.08.2019 03:25 13.8 C 94 % 1014.9 hPa 0.0 l/m 1.3 km/h S 182 0 min 0 min 0 W/m 3.2 km/h
17.08.2019 03:20 13.8 C 95 % 1014.8 hPa 0.0 l/m 2.1 km/h S 182 0 min 0 min 0 W/m 4.8 km/h
17.08.2019 03:15 13.7 C 95 % 1014.8 hPa 0.0 l/m 0.0 km/h S 182 0 min 0 min 0 W/m 0.0 km/h
17.08.2019 03:10 13.7 C 95 % 1014.8 hPa 0.0 l/m 0.0 km/h S 182 0 min 0 min 0 W/m 0.0 km/h
17.08.2019 03:05 13.6 C 95 % 1015.0 hPa 0.0 l/m 0.0 km/h S 182 0 min 0 min 0 W/m 0.0 km/h
17.08.2019 03:00 13.6 C 95 % 1015.0 hPa 0.0 l/m 0.0 km/h S 182 0 min 0 min 0 W/m 0.0 km/h
17.08.2019 02:55 13.7 C 94 % 1015.1 hPa 0.0 l/m 0.0 km/h S 182 0 min 0 min 0 W/m 0.0 km/h
17.08.2019 02:50 13.8 C 94 % 1015.1 hPa 0.0 l/m 0.0 km/h S 182 0 min 0 min 0 W/m 0.0 km/h
17.08.2019 02:45 13.8 C 94 % 1015.0 hPa 0.0 l/m 0.0 km/h S 182 0 min 0 min 0 W/m 0.0 km/h
17.08.2019 02:40 13.8 C 94 % 1015.0 hPa 0.0 l/m 0.0 km/h S 182 0 min 0 min 0 W/m 0.0 km/h
17.08.2019 02:35 13.8 C 94 % 1015.0 hPa 0.0 l/m 0.0 km/h S 182 0 min 0 min 0 W/m 0.0 km/h
17.08.2019 02:30 13.9 C 94 % 1015.0 hPa 0.0 l/m 0.0 km/h S 182 0 min 0 min 0 W/m 0.0 km/h
17.08.2019 02:25 13.9 C 93 % 1015.1 hPa 0.0 l/m 0.0 km/h S 182 0 min 0 min 0 W/m 0.0 km/h
17.08.2019 02:20 14.1 C 93 % 1015.1 hPa 0.0 l/m 0.0 km/h S 182 0 min 0 min 0 W/m 0.0 km/h
17.08.2019 02:15 14.2 C 93 % 1015.1 hPa 0.0 l/m 0.0 km/h S 182 0 min 0 min 0 W/m 0.0 km/h
17.08.2019 02:10 14.2 C 93 % 1015.2 hPa 0.0 l/m 0.0 km/h S 182 0 min 0 min 0 W/m 0.0 km/h
17.08.2019 02:05 14.1 C 92 % 1015.4 hPa 0.0 l/m 0.0 km/h S 182 0 min 0 min 0 W/m 0.0 km/h
17.08.2019 02:00 14.3 C 92 % 1015.3 hPa 0.0 l/m 0.0 km/h S 182 0 min 0 min 0 W/m 0.0 km/h
_ Min-Zeit 04:35 12:20 23:55 - 02:00 - - - - - 02:00
Minimum _ 12.8 C 59 % 1012.0 hPa - 0.0 km/h - - - - - 0.0 km/h
_ Max-Zeit 12:20 05:10 02:05 02:00 12:35 - - 07:55 16:35 12:20 12:35
Maximum _ 23.9 C 97 % 1015.4 hPa 0.0 l/m 9.5 km/h
W-SW
- - 5 min 5 min 811 W/m 22.5 km/h
W-SW
Durchschnitt _ 18.6 C 82 % 1014.0 hPa #0.0 l/m 1.9 km/h SW - #0 min. #0 min. 0 W/m 4.0 km/h